This is the latest recevied weather packets stored in our database for station/object VE8SKI. If no packets are shown the sender has not sent any weather packets the latest 10 day(s).
| Time | Temp. | Humidity | Pressure | Rain* | Wind** | Luminosity | Snow |
|---|---|---|---|---|---|---|---|
| 1777668377 | 6.11° C | 72% | 1010.3 hPa | 0 mm | 4.92 m/s, 15° | - | - |
| 1777668077 | 5.56° C | 73% | 1010.2 hPa | 0 mm | 4.92 m/s, 23° | - | - |
| 1777667778 | 6.11° C | 73% | 1010.2 hPa | 0 mm | 4.02 m/s, 6° | - | - |
| 1777667478 | 6.11° C | 73% | 1010.1 hPa | 0 mm | 4.02 m/s, 24° | - | - |
| 1777667179 | 6.11° C | 72% | 1010 hPa | 0 mm | 5.81 m/s, 10° | - | - |
| 1777666876 | 6.11° C | 73% | 1010 hPa | 0 mm | 4.92 m/s, 359° | - | - |
| 1777666577 | 5.56° C | 74% | 1009.9 hPa | 0 mm | 4.47 m/s, 342° | - | - |
| 1777666277 | 5.56° C | 74% | 1009.8 hPa | 0 mm | 4.02 m/s, 356° | - | - |
| 1777665978 | 5.56° C | 75% | 1009.8 hPa | 0 mm | 4.47 m/s, 51° | - | - |
| 1777665678 | 5.56° C | 76% | 1009.7 hPa | 0 mm | 4.47 m/s, 359° | - | - |
| 1777665379 | 5.56° C | 77% | 1009.7 hPa | 0 mm | 3.58 m/s, 359° | - | - |
| 1777665076 | 5.56° C | 77% | 1009.6 hPa | 0 mm | 3.58 m/s, 359° | - | - |
| 1777664777 | 5° C | 78% | 1009.6 hPa | 0 mm | 3.13 m/s, 24° | - | - |
| 1777664477 | 5° C | 78% | 1009.5 hPa | 0 mm | 4.02 m/s, 7° | - | - |
| 1777664178 | 5° C | 79% | 1009.5 hPa | 0 mm | 4.92 m/s, 3° | - | - |
| 1777663878 | 5° C | 79% | 1009.3 hPa | 0 mm | 4.92 m/s, 359° | - | - |
| 1777663578 | 5° C | 79% | 1009.2 hPa | 0 mm | 4.47 m/s, 15° | - | - |
| 1777663276 | 5° C | 78% | 1009.1 hPa | 0 mm | 4.47 m/s, 21° | - | - |
| 1777662977 | 5° C | 78% | 1009 hPa | 0 mm | 4.92 m/s, 7° | - | - |
| 1777662677 | 5° C | 78% | 1008.9 hPa | 0 mm | 4.92 m/s, 359° | - | - |
| 1777662378 | 5° C | 78% | 1008.9 hPa | 0 mm | 5.36 m/s, 17° | - | - |
| 1777662078 | 5° C | 78% | 1008.8 hPa | 0 mm | 4.47 m/s, 11° | - | - |
| 1777661779 | 5.56° C | 77% | 1008.6 hPa | 0 mm | 4.92 m/s, 263° | - | - |
| 1777661476 | 5.56° C | 77% | 1008.7 hPa | 0 mm | 4.02 m/s, 18° | - | - |
| 1777661177 | 5.56° C | 76% | 1008.6 hPa | 0 mm | 4.47 m/s, 4° | - | - |
* Rain latest hour (hover to see other rain measurements)
** Current wind speed in m/s (hover to see current wind gust speed)